createdAt,value
2022-12-11T00:00:07.000Z,95734
2022-12-11T00:04:52.000Z,95752
2022-12-11T00:09:52.000Z,95735
2022-12-11T00:15:07.000Z,95738
2022-12-11T00:20:07.000Z,95733
2022-12-11T00:25:07.000Z,95725
2022-12-11T00:30:07.000Z,95732
2022-12-11T00:35:07.000Z,95728
2022-12-11T00:40:07.000Z,95732
2022-12-11T00:44:52.000Z,95718
2022-12-11T00:50:07.000Z,95725
2022-12-11T00:55:07.000Z,95729
2022-12-11T01:00:07.000Z,95734
2022-12-11T01:05:07.000Z,95746
2022-12-11T01:10:07.000Z,95730
2022-12-11T01:15:07.000Z,95743
2022-12-11T01:20:07.000Z,95745
2022-12-11T01:24:52.000Z,95760
2022-12-11T01:30:07.000Z,95770
2022-12-11T01:35:07.000Z,95774
2022-12-11T01:40:07.000Z,95777
2022-12-11T01:45:07.000Z,95774
2022-12-11T01:50:07.000Z,95784
2022-12-11T01:55:07.000Z,95783
2022-12-11T01:59:52.000Z,95797
2022-12-11T02:05:07.000Z,95794
2022-12-11T02:10:07.000Z,95789
2022-12-11T02:15:07.000Z,95788
2022-12-11T02:19:52.000Z,95785
2022-12-11T02:25:07.000Z,95796
2022-12-11T02:30:07.000Z,95773
2022-12-11T02:35:07.000Z,95783
2022-12-11T02:40:07.000Z,95781
2022-12-11T02:45:07.000Z,95778
2022-12-11T02:49:52.000Z,95774
2022-12-11T02:54:52.000Z,95771
2022-12-11T03:00:07.000Z,95773
2022-12-11T03:05:07.000Z,95763
2022-12-11T03:09:52.000Z,95780
2022-12-11T03:15:07.000Z,95789
2022-12-11T03:19:52.000Z,95794
2022-12-11T03:25:07.000Z,95786
2022-12-11T03:30:07.000Z,95796
2022-12-11T03:35:07.000Z,95788
2022-12-11T03:39:52.000Z,95797
2022-12-11T03:44:52.000Z,95794
2022-12-11T03:49:52.000Z,95795
2022-12-11T03:55:07.000Z,95794
2022-12-11T04:00:07.000Z,95796
2022-12-11T04:04:52.000Z,95803
2022-12-11T04:09:52.000Z,95794
2022-12-11T04:14:52.000Z,95791
2022-12-11T04:19:52.000Z,95794
2022-12-11T04:25:07.000Z,95787
2022-12-11T04:30:07.000Z,95800
2022-12-11T04:34:52.000Z,95795
2022-12-11T04:39:52.000Z,95807
2022-12-11T04:44:52.000Z,95799
2022-12-11T04:50:07.000Z,95794
2022-12-11T04:55:07.000Z,95784
2022-12-11T04:59:52.000Z,95772
2022-12-11T05:04:52.000Z,95766
2022-12-11T05:09:52.000Z,95770
2022-12-11T05:15:07.000Z,95762
2022-12-11T05:20:07.000Z,95755
2022-12-11T05:24:52.000Z,95757
2022-12-11T05:29:52.000Z,95768
2022-12-11T05:34:52.000Z,95761
2022-12-11T05:39:52.000Z,95770
2022-12-11T05:45:07.000Z,95764
2022-12-11T05:50:07.000Z,95755
2022-12-11T05:54:52.000Z,95774
2022-12-11T05:59:52.000Z,95762
2022-12-11T06:04:52.000Z,95759
2022-12-11T06:09:52.000Z,95765
2022-12-11T06:15:07.000Z,95770
2022-12-11T06:19:52.000Z,95770
2022-12-11T06:24:52.000Z,95783
2022-12-11T06:30:07.000Z,95774
2022-12-11T06:35:07.000Z,95771
2022-12-11T06:40:07.000Z,95781
2022-12-11T06:44:52.000Z,95778
2022-12-11T06:50:07.000Z,95772
2022-12-11T06:55:07.000Z,95775
2022-12-11T06:59:52.000Z,95767
2022-12-11T07:05:07.000Z,95771
2022-12-11T07:10:07.000Z,95767
2022-12-11T07:14:52.000Z,95774
2022-12-11T07:19:52.000Z,95769
2022-12-11T07:24:52.000Z,95770
2022-12-11T07:29:52.000Z,95781
2022-12-11T07:34:52.000Z,95795
2022-12-11T07:40:07.000Z,95789
2022-12-11T07:44:52.000Z,95791
2022-12-11T07:49:52.000Z,95791
2022-12-11T07:54:52.000Z,95797
2022-12-11T07:59:52.000Z,95803
2022-12-11T08:05:07.000Z,95806
2022-12-11T08:10:07.000Z,95816
2022-12-11T08:14:52.000Z,95823
2022-12-11T08:19:52.000Z,95817
2022-12-11T08:24:52.000Z,95812
2022-12-11T08:30:07.000Z,95803
2022-12-11T08:34:52.000Z,95796
2022-12-11T08:39:52.000Z,95792
2022-12-11T08:44:52.000Z,95800
2022-12-11T08:50:07.000Z,95792
2022-12-11T08:55:07.000Z,95789
2022-12-11T08:59:52.000Z,95779
2022-12-11T09:04:52.000Z,95782
2022-12-11T09:10:07.000Z,95778
2022-12-11T09:15:07.000Z,95774
2022-12-11T09:19:52.000Z,95780
2022-12-11T09:24:52.000Z,95775
2022-12-11T09:30:07.000Z,95779
2022-12-11T09:35:07.000Z,95766
2022-12-11T09:39:52.000Z,95766
2022-12-11T09:44:52.000Z,95751
2022-12-11T09:49:52.000Z,95757
2022-12-11T09:55:07.000Z,95746
2022-12-11T09:59:52.000Z,95739
2022-12-11T10:05:07.000Z,95732
2022-12-11T10:10:07.000Z,95734
2022-12-11T10:14:52.000Z,95720
2022-12-11T10:19:52.000Z,95714
2022-12-11T10:24:52.000Z,95708
2022-12-11T10:29:52.000Z,95702
2022-12-11T10:35:07.000Z,95709
2022-12-11T10:39:52.000Z,95688
2022-12-11T10:44:52.000Z,95690
2022-12-11T10:49:52.000Z,95687
2022-12-11T10:55:07.000Z,95674
2022-12-11T10:59:52.000Z,95669
2022-12-11T11:04:52.000Z,95672
2022-12-11T11:09:52.000Z,95672
2022-12-11T11:14:52.000Z,95668
2022-12-11T11:19:52.000Z,95654
2022-12-11T11:24:52.000Z,95643
2022-12-11T11:29:52.000Z,95646
2022-12-11T11:34:52.000Z,95640
2022-12-11T11:39:52.000Z,95645
2022-12-11T11:44:52.000Z,95638
2022-12-11T11:49:52.000Z,95628
2022-12-11T11:54:52.000Z,95613
2022-12-11T11:59:52.000Z,95614
2022-12-11T12:04:52.000Z,95613
2022-12-11T12:09:52.000Z,95591
2022-12-11T12:14:52.000Z,95617
2022-12-11T12:19:52.000Z,95617
2022-12-11T12:25:07.000Z,95617
2022-12-11T12:29:52.000Z,95619
2022-12-11T12:34:52.000Z,95603
2022-12-11T12:39:52.000Z,95608
2022-12-11T12:44:52.000Z,95603
2022-12-11T12:49:52.000Z,95604
2022-12-11T12:54:52.000Z,95596
2022-12-11T12:59:52.000Z,95604
2022-12-11T13:04:52.000Z,95613
2022-12-11T13:09:53.000Z,95630
2022-12-11T13:14:53.000Z,95617
2022-12-11T13:19:53.000Z,95639
2022-12-11T13:24:53.000Z,95634
2022-12-11T13:29:53.000Z,95634
2022-12-11T13:35:08.000Z,95640
2022-12-11T13:39:53.000Z,95632
2022-12-11T13:44:53.000Z,95628
2022-12-11T13:49:53.000Z,95644
2022-12-11T13:54:53.000Z,95647
2022-12-11T13:59:53.000Z,95652
2022-12-11T14:04:53.000Z,95643
2022-12-11T14:09:53.000Z,95640
2022-12-11T14:15:08.000Z,95637
2022-12-11T14:19:53.000Z,95633
2022-12-11T14:24:53.000Z,95636
2022-12-11T14:30:08.000Z,95630
2022-12-11T14:34:53.000Z,95636
2022-12-11T14:39:53.000Z,95645
2022-12-11T14:45:00.000Z,95651
2022-12-11T14:50:00.000Z,95648
2022-12-11T14:55:00.000Z,95653
2022-12-11T15:00:00.000Z,95652
2022-12-11T15:05:00.000Z,95655
2022-12-11T15:10:00.000Z,95658
2022-12-11T15:15:00.000Z,95658
2022-12-11T15:20:00.000Z,95657
2022-12-11T15:25:00.000Z,95651
2022-12-11T15:30:00.000Z,95640
2022-12-11T15:35:00.000Z,95637
2022-12-11T15:40:00.000Z,95646
2022-12-11T15:45:00.000Z,95640
2022-12-11T15:50:00.000Z,95640
2022-12-11T15:55:00.000Z,95644
2022-12-11T16:00:00.000Z,95642
2022-12-11T16:05:00.000Z,95650
2022-12-11T16:10:00.000Z,95652
2022-12-11T16:15:00.000Z,95654
2022-12-11T16:20:00.000Z,95655
2022-12-11T16:25:00.000Z,95650
2022-12-11T16:30:00.000Z,95657
2022-12-11T16:35:00.000Z,95656
2022-12-11T16:40:00.000Z,95644
2022-12-11T16:45:00.000Z,95651
2022-12-11T16:50:00.000Z,95652
2022-12-11T16:55:00.000Z,95648
2022-12-11T17:00:00.000Z,95644
2022-12-11T17:05:00.000Z,95642
2022-12-11T17:10:00.000Z,95647
2022-12-11T17:15:00.000Z,95644
2022-12-11T17:20:00.000Z,95643
2022-12-11T17:25:00.000Z,95643
2022-12-11T17:30:00.000Z,95648
2022-12-11T17:35:00.000Z,95641
2022-12-11T17:40:00.000Z,95642
2022-12-11T17:45:00.000Z,95645
2022-12-11T17:50:00.000Z,95639
2022-12-11T17:55:00.000Z,95648
2022-12-11T18:00:00.000Z,95645
2022-12-11T18:05:00.000Z,95643
2022-12-11T18:10:00.000Z,95633
2022-12-11T18:15:00.000Z,95630
2022-12-11T18:20:00.000Z,95634
2022-12-11T18:25:00.000Z,95642
2022-12-11T18:30:00.000Z,95638
2022-12-11T18:35:00.000Z,95646
2022-12-11T18:40:00.000Z,95638
2022-12-11T18:45:00.000Z,95652
2022-12-11T18:50:00.000Z,95650
2022-12-11T18:55:00.000Z,95656
2022-12-11T19:00:00.000Z,95655
2022-12-11T19:05:00.000Z,95666
2022-12-11T19:10:00.000Z,95666
2022-12-11T19:15:00.000Z,95676
2022-12-11T19:20:00.000Z,95677
2022-12-11T19:25:00.000Z,95678
2022-12-11T19:30:00.000Z,95664
2022-12-11T19:35:00.000Z,95676
2022-12-11T19:40:00.000Z,95665
2022-12-11T19:45:00.000Z,95667
2022-12-11T19:50:00.000Z,95664
2022-12-11T19:55:00.000Z,95662
2022-12-11T20:00:00.000Z,95667
2022-12-11T20:05:00.000Z,95669
2022-12-11T20:10:00.000Z,95660
2022-12-11T20:15:00.000Z,95656
2022-12-11T20:20:00.000Z,95658
2022-12-11T20:25:00.000Z,95653
2022-12-11T20:30:00.000Z,95656
2022-12-11T20:35:00.000Z,95648
2022-12-11T20:40:00.000Z,95647
2022-12-11T20:45:00.000Z,95652
2022-12-11T20:50:00.000Z,95653
2022-12-11T20:55:00.000Z,95657
2022-12-11T21:00:00.000Z,95658
2022-12-11T21:05:00.000Z,95662
2022-12-11T21:10:00.000Z,95660
2022-12-11T21:15:00.000Z,95664
2022-12-11T21:20:00.000Z,95677
2022-12-11T21:25:00.000Z,95664
2022-12-11T21:30:00.000Z,95663
2022-12-11T21:35:00.000Z,95653
2022-12-11T21:40:00.000Z,95651
2022-12-11T21:45:00.000Z,95650
2022-12-11T21:50:00.000Z,95654
2022-12-11T21:55:00.000Z,95657
2022-12-11T22:00:00.000Z,95656
2022-12-11T22:05:00.000Z,95669
2022-12-11T22:10:00.000Z,95667
2022-12-11T22:15:00.000Z,95658
2022-12-11T22:20:00.000Z,95668
2022-12-11T22:25:00.000Z,95672
2022-12-11T22:30:00.000Z,95659
2022-12-11T22:35:00.000Z,95672
2022-12-11T22:40:00.000Z,95668
2022-12-11T22:45:00.000Z,95669
2022-12-11T22:50:00.000Z,95668
2022-12-11T22:55:00.000Z,95668
2022-12-11T23:00:00.000Z,95667
2022-12-11T23:05:00.000Z,95668
2022-12-11T23:10:00.000Z,95678
2022-12-11T23:15:00.000Z,95671
2022-12-11T23:20:00.000Z,95668
2022-12-11T23:25:00.000Z,95661
2022-12-11T23:30:00.000Z,95658
2022-12-11T23:35:00.000Z,95660
2022-12-11T23:40:00.000Z,95660
2022-12-11T23:45:00.000Z,95661
2022-12-11T23:50:00.000Z,95656
2022-12-11T23:55:00.000Z,95668
